sensor_id;sensor_type;location;lat;lon;timestamp;P1;durP1;ratioP1;P2;durP2;ratioP2
47545;SDS011;50104;52.002;4.688;2023-10-19T00:04:13;16.45;;;11.55;;
47545;SDS011;50104;52.002;4.688;2023-10-19T00:09:14;17.13;;;13.07;;
47545;SDS011;50104;52.002;4.688;2023-10-19T00:14:16;17.48;;;13.45;;
47545;SDS011;50104;52.002;4.688;2023-10-19T00:19:17;17.83;;;13.25;;
47545;SDS011;50104;52.002;4.688;2023-10-19T00:24:20;17.88;;;13.65;;
47545;SDS011;50104;52.002;4.688;2023-10-19T00:29:24;15.63;;;12.85;;
47545;SDS011;50104;52.002;4.688;2023-10-19T00:34:47;19.30;;;15.00;;
47545;SDS011;50104;52.002;4.688;2023-10-19T00:39:52;18.02;;;13.77;;
47545;SDS011;50104;52.002;4.688;2023-10-19T00:44:55;18.25;;;14.18;;
47545;SDS011;50104;52.002;4.688;2023-10-19T00:50:25;20.08;;;14.60;;
47545;SDS011;50104;52.002;4.688;2023-10-19T00:55:30;21.45;;;14.80;;
47545;SDS011;50104;52.002;4.688;2023-10-19T01:00:33;26.17;;;15.93;;
47545;SDS011;50104;52.002;4.688;2023-10-19T01:05:35;21.38;;;15.27;;
47545;SDS011;50104;52.002;4.688;2023-10-19T01:10:36;21.08;;;14.10;;
47545;SDS011;50104;52.002;4.688;2023-10-19T01:15:37;22.88;;;15.75;;
47545;SDS011;50104;52.002;4.688;2023-10-19T01:20:39;23.25;;;16.27;;
47545;SDS011;50104;52.002;4.688;2023-10-19T01:25:56;28.20;;;16.95;;
47545;SDS011;50104;52.002;4.688;2023-10-19T01:30:59;23.42;;;15.30;;
47545;SDS011;50104;52.002;4.688;2023-10-19T01:36:06;16.23;;;11.10;;
47545;SDS011;50104;52.002;4.688;2023-10-19T01:41:36;25.13;;;11.50;;
47545;SDS011;50104;52.002;4.688;2023-10-19T01:46:38;22.27;;;11.45;;
47545;SDS011;50104;52.002;4.688;2023-10-19T01:51:39;21.92;;;10.30;;
47545;SDS011;50104;52.002;4.688;2023-10-19T01:56:40;17.88;;;9.05;;
47545;SDS011;50104;52.002;4.688;2023-10-19T02:01:43;17.15;;;9.32;;
47545;SDS011;50104;52.002;4.688;2023-10-19T02:06:45;10.05;;;6.63;;
47545;SDS011;50104;52.002;4.688;2023-10-19T02:11:48;9.38;;;5.35;;
47545;SDS011;50104;52.002;4.688;2023-10-19T02:16:53;7.55;;;4.63;;
47545;SDS011;50104;52.002;4.688;2023-10-19T02:22:00;10.07;;;5.20;;
47545;SDS011;50104;52.002;4.688;2023-10-19T02:27:12;5.53;;;3.53;;
47545;SDS011;50104;52.002;4.688;2023-10-19T02:32:12;7.10;;;2.90;;
47545;SDS011;50104;52.002;4.688;2023-10-19T02:37:13;4.90;;;2.83;;
47545;SDS011;50104;52.002;4.688;2023-10-19T02:42:14;3.05;;;2.38;;
47545;SDS011;50104;52.002;4.688;2023-10-19T02:47:15;5.20;;;1.83;;
47545;SDS011;50104;52.002;4.688;2023-10-19T02:52:17;5.68;;;1.98;;
47545;SDS011;50104;52.002;4.688;2023-10-19T02:57:18;4.13;;;2.17;;
47545;SDS011;50104;52.002;4.688;2023-10-19T03:02:20;5.43;;;2.20;;
47545;SDS011;50104;52.002;4.688;2023-10-19T03:07:20;8.25;;;2.65;;
47545;SDS011;50104;52.002;4.688;2023-10-19T03:12:21;7.95;;;2.53;;
47545;SDS011;50104;52.002;4.688;2023-10-19T03:17:27;8.93;;;2.75;;
47545;SDS011;50104;52.002;4.688;2023-10-19T03:22:30;6.22;;;2.33;;
47545;SDS011;50104;52.002;4.688;2023-10-19T03:27:32;5.35;;;1.90;;
47545;SDS011;50104;52.002;4.688;2023-10-19T03:32:33;5.70;;;1.65;;
47545;SDS011;50104;52.002;4.688;2023-10-19T03:37:35;4.63;;;1.80;;
47545;SDS011;50104;52.002;4.688;2023-10-19T03:42:36;9.73;;;1.60;;
47545;SDS011;50104;52.002;4.688;2023-10-19T03:47:44;5.07;;;1.15;;
47545;SDS011;50104;52.002;4.688;2023-10-19T03:52:50;3.28;;;1.08;;
47545;SDS011;50104;52.002;4.688;2023-10-19T03:57:52;4.55;;;1.35;;
47545;SDS011;50104;52.002;4.688;2023-10-19T04:02:54;5.53;;;1.27;;
47545;SDS011;50104;52.002;4.688;2023-10-19T04:07:55;6.85;;;1.50;;
47545;SDS011;50104;52.002;4.688;2023-10-19T04:12:57;7.18;;;1.35;;
47545;SDS011;50104;52.002;4.688;2023-10-19T04:18:01;6.00;;;1.30;;
47545;SDS011;50104;52.002;4.688;2023-10-19T04:23:08;3.72;;;1.33;;
47545;SDS011;50104;52.002;4.688;2023-10-19T04:28:14;4.00;;;1.23;;
47545;SDS011;50104;52.002;4.688;2023-10-19T04:33:15;5.68;;;2.03;;
47545;SDS011;50104;52.002;4.688;2023-10-19T04:38:18;8.35;;;1.58;;
47545;SDS011;50104;52.002;4.688;2023-10-19T04:43:20;3.22;;;1.20;;
47545;SDS011;50104;52.002;4.688;2023-10-19T04:48:21;6.28;;;1.67;;
47545;SDS011;50104;52.002;4.688;2023-10-19T04:53:22;4.78;;;1.20;;
47545;SDS011;50104;52.002;4.688;2023-10-19T04:58:23;6.28;;;1.05;;
47545;SDS011;50104;52.002;4.688;2023-10-19T05:03:24;3.92;;;1.30;;
47545;SDS011;50104;52.002;4.688;2023-10-19T05:08:26;4.95;;;1.40;;
47545;SDS011;50104;52.002;4.688;2023-10-19T05:13:28;9.23;;;1.45;;
47545;SDS011;50104;52.002;4.688;2023-10-19T05:18:30;6.72;;;1.35;;
47545;SDS011;50104;52.002;4.688;2023-10-19T05:23:31;5.22;;;1.55;;
47545;SDS011;50104;52.002;4.688;2023-10-19T05:28:32;5.25;;;1.52;;
47545;SDS011;50104;52.002;4.688;2023-10-19T05:33:33;6.35;;;1.50;;
47545;SDS011;50104;52.002;4.688;2023-10-19T05:38:34;3.90;;;1.40;;
47545;SDS011;50104;52.002;4.688;2023-10-19T05:43:35;6.45;;;1.30;;
47545;SDS011;50104;52.002;4.688;2023-10-19T05:48:36;7.00;;;1.35;;
47545;SDS011;50104;52.002;4.688;2023-10-19T05:53:36;7.05;;;1.70;;
47545;SDS011;50104;52.002;4.688;2023-10-19T05:58:37;6.05;;;1.50;;
47545;SDS011;50104;52.002;4.688;2023-10-19T06:03:38;3.65;;;1.30;;
47545;SDS011;50104;52.002;4.688;2023-10-19T06:08:40;4.38;;;1.70;;
47545;SDS011;50104;52.002;4.688;2023-10-19T06:13:41;6.72;;;1.77;;
47545;SDS011;50104;52.002;4.688;2023-10-19T06:18:43;3.88;;;1.60;;
47545;SDS011;50104;52.002;4.688;2023-10-19T06:23:44;6.32;;;1.73;;
47545;SDS011;50104;52.002;4.688;2023-10-19T06:28:44;5.65;;;1.90;;
47545;SDS011;50104;52.002;4.688;2023-10-19T06:33:45;6.03;;;1.30;;
47545;SDS011;50104;52.002;4.688;2023-10-19T06:38:46;4.18;;;1.35;;
47545;SDS011;50104;52.002;4.688;2023-10-19T06:43:51;10.30;;;1.80;;
47545;SDS011;50104;52.002;4.688;2023-10-19T06:48:51;5.07;;;2.10;;
47545;SDS011;50104;52.002;4.688;2023-10-19T06:53:56;11.80;;;2.25;;
47545;SDS011;50104;52.002;4.688;2023-10-19T06:58:57;5.03;;;1.67;;
47545;SDS011;50104;52.002;4.688;2023-10-19T07:03:59;6.10;;;1.60;;
47545;SDS011;50104;52.002;4.688;2023-10-19T07:09:00;5.60;;;1.70;;
47545;SDS011;50104;52.002;4.688;2023-10-19T07:14:03;4.20;;;2.10;;
47545;SDS011;50104;52.002;4.688;2023-10-19T07:19:07;5.28;;;1.80;;
47545;SDS011;50104;52.002;4.688;2023-10-19T07:24:09;7.00;;;2.42;;
47545;SDS011;50104;52.002;4.688;2023-10-19T07:29:11;8.77;;;2.70;;
47545;SDS011;50104;52.002;4.688;2023-10-19T07:34:15;5.45;;;2.47;;
47545;SDS011;50104;52.002;4.688;2023-10-19T07:39:16;7.50;;;1.92;;
47545;SDS011;50104;52.002;4.688;2023-10-19T07:44:19;11.40;;;2.38;;
47545;SDS011;50104;52.002;4.688;2023-10-19T07:49:20;7.32;;;1.80;;
47545;SDS011;50104;52.002;4.688;2023-10-19T07:54:22;7.20;;;2.05;;
47545;SDS011;50104;52.002;4.688;2023-10-19T07:59:23;8.65;;;2.10;;
47545;SDS011;50104;52.002;4.688;2023-10-19T08:04:23;7.57;;;2.38;;
47545;SDS011;50104;52.002;4.688;2023-10-19T08:09:25;5.78;;;1.45;;
47545;SDS011;50104;52.002;4.688;2023-10-19T08:14:31;8.33;;;1.87;;
47545;SDS011;50104;52.002;4.688;2023-10-19T08:19:32;6.47;;;2.00;;
47545;SDS011;50104;52.002;4.688;2023-10-19T08:24:33;8.90;;;2.10;;
47545;SDS011;50104;52.002;4.688;2023-10-19T08:29:35;11.82;;;2.10;;
47545;SDS011;50104;52.002;4.688;2023-10-19T08:34:36;8.68;;;2.00;;
47545;SDS011;50104;52.002;4.688;2023-10-19T08:39:37;7.38;;;2.13;;
47545;SDS011;50104;52.002;4.688;2023-10-19T08:44:37;12.18;;;2.63;;
47545;SDS011;50104;52.002;4.688;2023-10-19T08:49:38;11.20;;;2.67;;
47545;SDS011;50104;52.002;4.688;2023-10-19T08:54:39;8.48;;;2.67;;
47545;SDS011;50104;52.002;4.688;2023-10-19T08:59:40;16.35;;;3.92;;
47545;SDS011;50104;52.002;4.688;2023-10-19T09:04:41;14.30;;;3.30;;
47545;SDS011;50104;52.002;4.688;2023-10-19T09:09:46;9.93;;;3.58;;
47545;SDS011;50104;52.002;4.688;2023-10-19T09:14:48;12.32;;;3.08;;
47545;SDS011;50104;52.002;4.688;2023-10-19T09:19:50;8.77;;;2.97;;
47545;SDS011;50104;52.002;4.688;2023-10-19T09:24:51;7.50;;;2.72;;
47545;SDS011;50104;52.002;4.688;2023-10-19T09:29:55;10.45;;;3.42;;
47545;SDS011;50104;52.002;4.688;2023-10-19T09:34:56;12.07;;;2.63;;
47545;SDS011;50104;52.002;4.688;2023-10-19T09:39:58;8.85;;;2.17;;
47545;SDS011;50104;52.002;4.688;2023-10-19T09:44:59;6.15;;;2.20;;
47545;SDS011;50104;52.002;4.688;2023-10-19T09:50:05;10.27;;;2.75;;
47545;SDS011;50104;52.002;4.688;2023-10-19T09:55:22;11.60;;;2.70;;
47545;SDS011;50104;52.002;4.688;2023-10-19T10:00:38;10.10;;;2.05;;
47545;SDS011;50104;52.002;4.688;2023-10-19T10:10:46;7.20;;;2.28;;
47545;SDS011;50104;52.002;4.688;2023-10-19T10:15:48;11.10;;;2.20;;
47545;SDS011;50104;52.002;4.688;2023-10-19T10:21:04;12.48;;;2.00;;
47545;SDS011;50104;52.002;4.688;2023-10-19T10:26:19;7.13;;;1.80;;
47545;SDS011;50104;52.002;4.688;2023-10-19T10:31:44;8.23;;;2.47;;
47545;SDS011;50104;52.002;4.688;2023-10-19T10:37:04;11.65;;;2.28;;
47545;SDS011;50104;52.002;4.688;2023-10-19T10:42:10;9.05;;;1.88;;
47545;SDS011;50104;52.002;4.688;2023-10-19T10:47:12;10.23;;;2.15;;
47545;SDS011;50104;52.002;4.688;2023-10-19T10:52:30;9.00;;;2.63;;
47545;SDS011;50104;52.002;4.688;2023-10-19T10:57:37;10.18;;;2.33;;
47545;SDS011;50104;52.002;4.688;2023-10-19T11:02:39;8.48;;;1.75;;
47545;SDS011;50104;52.002;4.688;2023-10-19T11:13:10;7.90;;;1.88;;
47545;SDS011;50104;52.002;4.688;2023-10-19T11:18:27;10.98;;;2.15;;
47545;SDS011;50104;52.002;4.688;2023-10-19T11:23:46;6.03;;;1.40;;
47545;SDS011;50104;52.002;4.688;2023-10-19T11:29:06;10.40;;;1.95;;
47545;SDS011;50104;52.002;4.688;2023-10-19T11:34:09;11.07;;;2.80;;
47545;SDS011;50104;52.002;4.688;2023-10-19T11:39:10;6.22;;;1.58;;
47545;SDS011;50104;52.002;4.688;2023-10-19T11:44:12;7.72;;;1.60;;
47545;SDS011;50104;52.002;4.688;2023-10-19T11:49:13;7.20;;;1.85;;
47545;SDS011;50104;52.002;4.688;2023-10-19T11:54:14;7.05;;;1.70;;
47545;SDS011;50104;52.002;4.688;2023-10-19T11:59:16;8.48;;;2.22;;
47545;SDS011;50104;52.002;4.688;2023-10-19T12:04:17;7.82;;;2.13;;
47545;SDS011;50104;52.002;4.688;2023-10-19T12:09:19;7.25;;;1.85;;
47545;SDS011;50104;52.002;4.688;2023-10-19T12:14:39;12.60;;;2.30;;
47545;SDS011;50104;52.002;4.688;2023-10-19T12:19:40;12.35;;;1.58;;
47545;SDS011;50104;52.002;4.688;2023-10-19T12:24:41;4.95;;;1.50;;
47545;SDS011;50104;52.002;4.688;2023-10-19T12:29:41;6.13;;;1.90;;
47545;SDS011;50104;52.002;4.688;2023-10-19T12:34:42;12.50;;;1.77;;
47545;SDS011;50104;52.002;4.688;2023-10-19T12:39:45;9.40;;;2.13;;
47545;SDS011;50104;52.002;4.688;2023-10-19T12:44:49;11.15;;;2.05;;
47545;SDS011;50104;52.002;4.688;2023-10-19T12:49:51;13.95;;;2.60;;
47545;SDS011;50104;52.002;4.688;2023-10-19T12:54:52;11.05;;;2.00;;
47545;SDS011;50104;52.002;4.688;2023-10-19T13:05:22;7.15;;;1.50;;
47545;SDS011;50104;52.002;4.688;2023-10-19T13:10:27;8.43;;;2.10;;
47545;SDS011;50104;52.002;4.688;2023-10-19T13:15:32;8.18;;;2.20;;
47545;SDS011;50104;52.002;4.688;2023-10-19T13:20:35;11.55;;;2.55;;
47545;SDS011;50104;52.002;4.688;2023-10-19T13:25:38;9.27;;;1.88;;
47545;SDS011;50104;52.002;4.688;2023-10-19T13:35:49;9.38;;;1.75;;
47545;SDS011;50104;52.002;4.688;2023-10-19T13:40:50;11.30;;;2.00;;
47545;SDS011;50104;52.002;4.688;2023-10-19T13:45:52;9.65;;;1.98;;
47545;SDS011;50104;52.002;4.688;2023-10-19T13:50:53;7.90;;;1.95;;
47545;SDS011;50104;52.002;4.688;2023-10-19T14:01:01;6.13;;;1.98;;
47545;SDS011;50104;52.002;4.688;2023-10-19T14:06:03;5.97;;;2.17;;
47545;SDS011;50104;52.002;4.688;2023-10-19T14:11:04;6.88;;;1.90;;
47545;SDS011;50104;52.002;4.688;2023-10-19T14:16:06;9.38;;;1.77;;
47545;SDS011;50104;52.002;4.688;2023-10-19T14:21:13;4.60;;;2.00;;
47545;SDS011;50104;52.002;4.688;2023-10-19T14:26:19;9.20;;;2.60;;
47545;SDS011;50104;52.002;4.688;2023-10-19T14:31:20;13.68;;;2.40;;
47545;SDS011;50104;52.002;4.688;2023-10-19T14:36:21;6.05;;;1.70;;
47545;SDS011;50104;52.002;4.688;2023-10-19T14:41:22;10.05;;;2.10;;
47545;SDS011;50104;52.002;4.688;2023-10-19T14:46:23;7.38;;;2.22;;
47545;SDS011;50104;52.002;4.688;2023-10-19T14:51:27;11.05;;;2.35;;
47545;SDS011;50104;52.002;4.688;2023-10-19T14:56:28;11.77;;;2.20;;
47545;SDS011;50104;52.002;4.688;2023-10-19T15:01:29;7.40;;;2.33;;
47545;SDS011;50104;52.002;4.688;2023-10-19T15:06:31;6.15;;;1.98;;
47545;SDS011;50104;52.002;4.688;2023-10-19T15:11:32;7.07;;;1.95;;
47545;SDS011;50104;52.002;4.688;2023-10-19T15:16:33;7.82;;;2.40;;
47545;SDS011;50104;52.002;4.688;2023-10-19T15:21:34;8.73;;;1.98;;
47545;SDS011;50104;52.002;4.688;2023-10-19T15:26:35;8.85;;;2.10;;
47545;SDS011;50104;52.002;4.688;2023-10-19T15:31:36;8.35;;;1.95;;
47545;SDS011;50104;52.002;4.688;2023-10-19T15:36:36;6.10;;;2.03;;
47545;SDS011;50104;52.002;4.688;2023-10-19T15:41:37;6.65;;;1.83;;
47545;SDS011;50104;52.002;4.688;2023-10-19T15:46:38;8.95;;;1.98;;
47545;SDS011;50104;52.002;4.688;2023-10-19T15:51:39;5.63;;;1.60;;
47545;SDS011;50104;52.002;4.688;2023-10-19T15:56:40;5.15;;;1.95;;
47545;SDS011;50104;52.002;4.688;2023-10-19T16:01:41;4.35;;;1.50;;
47545;SDS011;50104;52.002;4.688;2023-10-19T16:06:42;6.38;;;2.47;;
47545;SDS011;50104;52.002;4.688;2023-10-19T16:11:44;5.95;;;2.20;;
47545;SDS011;50104;52.002;4.688;2023-10-19T16:16:48;4.30;;;2.00;;
47545;SDS011;50104;52.002;4.688;2023-10-19T16:21:49;8.60;;;2.47;;
47545;SDS011;50104;52.002;4.688;2023-10-19T16:26:50;6.82;;;2.47;;
47545;SDS011;50104;52.002;4.688;2023-10-19T16:31:52;9.35;;;2.65;;
47545;SDS011;50104;52.002;4.688;2023-10-19T16:36:55;7.97;;;3.60;;
47545;SDS011;50104;52.002;4.688;2023-10-19T16:41:56;8.63;;;3.20;;
47545;SDS011;50104;52.002;4.688;2023-10-19T16:46:57;6.57;;;3.40;;
47545;SDS011;50104;52.002;4.688;2023-10-19T16:51:58;8.15;;;3.47;;
47545;SDS011;50104;52.002;4.688;2023-10-19T16:56:58;7.75;;;3.28;;
47545;SDS011;50104;52.002;4.688;2023-10-19T17:01:59;8.60;;;3.53;;
47545;SDS011;50104;52.002;4.688;2023-10-19T17:07:01;8.05;;;3.42;;
47545;SDS011;50104;52.002;4.688;2023-10-19T17:12:02;9.60;;;3.88;;
47545;SDS011;50104;52.002;4.688;2023-10-19T17:17:03;5.70;;;3.30;;
47545;SDS011;50104;52.002;4.688;2023-10-19T17:22:04;9.23;;;4.35;;
47545;SDS011;50104;52.002;4.688;2023-10-19T17:27:05;6.38;;;3.35;;
47545;SDS011;50104;52.002;4.688;2023-10-19T17:32:07;11.70;;;4.82;;
47545;SDS011;50104;52.002;4.688;2023-10-19T17:37:08;11.40;;;4.25;;
47545;SDS011;50104;52.002;4.688;2023-10-19T17:42:09;6.78;;;3.80;;
47545;SDS011;50104;52.002;4.688;2023-10-19T17:47:10;7.43;;;3.60;;
47545;SDS011;50104;52.002;4.688;2023-10-19T17:52:12;10.00;;;4.68;;
47545;SDS011;50104;52.002;4.688;2023-10-19T17:57:17;6.63;;;3.92;;
47545;SDS011;50104;52.002;4.688;2023-10-19T18:02:18;8.98;;;4.22;;
47545;SDS011;50104;52.002;4.688;2023-10-19T18:07:19;9.18;;;4.28;;
47545;SDS011;50104;52.002;4.688;2023-10-19T18:12:20;12.25;;;4.78;;
47545;SDS011;50104;52.002;4.688;2023-10-19T18:17:21;7.53;;;4.75;;
47545;SDS011;50104;52.002;4.688;2023-10-19T18:22:23;13.95;;;4.60;;
47545;SDS011;50104;52.002;4.688;2023-10-19T18:27:24;7.65;;;4.45;;
47545;SDS011;50104;52.002;4.688;2023-10-19T18:32:26;8.98;;;4.97;;
47545;SDS011;50104;52.002;4.688;2023-10-19T18:37:26;12.93;;;5.72;;
47545;SDS011;50104;52.002;4.688;2023-10-19T18:42:27;10.18;;;5.90;;
47545;SDS011;50104;52.002;4.688;2023-10-19T18:47:31;14.93;;;5.90;;
47545;SDS011;50104;52.002;4.688;2023-10-19T18:52:34;13.82;;;5.85;;
47545;SDS011;50104;52.002;4.688;2023-10-19T18:57:35;11.23;;;5.70;;
47545;SDS011;50104;52.002;4.688;2023-10-19T19:02:35;10.43;;;5.65;;
47545;SDS011;50104;52.002;4.688;2023-10-19T19:07:36;8.63;;;5.65;;
47545;SDS011;50104;52.002;4.688;2023-10-19T19:12:37;12.18;;;5.70;;
47545;SDS011;50104;52.002;4.688;2023-10-19T19:17:38;9.55;;;6.35;;
47545;SDS011;50104;52.002;4.688;2023-10-19T19:22:39;12.38;;;6.60;;
47545;SDS011;50104;52.002;4.688;2023-10-19T19:27:40;12.98;;;6.88;;
47545;SDS011;50104;52.002;4.688;2023-10-19T19:32:40;16.05;;;7.38;;
47545;SDS011;50104;52.002;4.688;2023-10-19T19:37:42;14.63;;;8.02;;
47545;SDS011;50104;52.002;4.688;2023-10-19T19:42:44;11.75;;;7.97;;
47545;SDS011;50104;52.002;4.688;2023-10-19T19:47:46;17.60;;;8.38;;
47545;SDS011;50104;52.002;4.688;2023-10-19T19:52:49;20.77;;;8.20;;
47545;SDS011;50104;52.002;4.688;2023-10-19T19:57:52;13.57;;;7.97;;
47545;SDS011;50104;52.002;4.688;2023-10-19T20:02:52;13.93;;;7.78;;
47545;SDS011;50104;52.002;4.688;2023-10-19T20:07:53;13.95;;;8.02;;
47545;SDS011;50104;52.002;4.688;2023-10-19T20:12:54;13.88;;;7.57;;
47545;SDS011;50104;52.002;4.688;2023-10-19T20:17:56;12.85;;;7.90;;
47545;SDS011;50104;52.002;4.688;2023-10-19T20:22:59;11.30;;;6.88;;
47545;SDS011;50104;52.002;4.688;2023-10-19T20:28:01;12.25;;;7.65;;
47545;SDS011;50104;52.002;4.688;2023-10-19T20:33:04;14.70;;;7.38;;
47545;SDS011;50104;52.002;4.688;2023-10-19T20:38:08;15.68;;;8.13;;
47545;SDS011;50104;52.002;4.688;2023-10-19T20:43:10;14.68;;;7.72;;
47545;SDS011;50104;52.002;4.688;2023-10-19T20:48:13;8.65;;;7.07;;
47545;SDS011;50104;52.002;4.688;2023-10-19T20:53:15;15.35;;;8.63;;
47545;SDS011;50104;52.002;4.688;2023-10-19T20:58:17;9.95;;;7.55;;
47545;SDS011;50104;52.002;4.688;2023-10-19T21:03:22;13.18;;;8.73;;
47545;SDS011;50104;52.002;4.688;2023-10-19T21:08:23;12.23;;;8.25;;
47545;SDS011;50104;52.002;4.688;2023-10-19T21:13:24;13.25;;;9.15;;
47545;SDS011;50104;52.002;4.688;2023-10-19T21:18:25;13.15;;;8.73;;
47545;SDS011;50104;52.002;4.688;2023-10-19T21:23:25;16.02;;;9.13;;
47545;SDS011;50104;52.002;4.688;2023-10-19T21:28:26;14.32;;;8.88;;
47545;SDS011;50104;52.002;4.688;2023-10-19T21:33:27;16.90;;;10.20;;
47545;SDS011;50104;52.002;4.688;2023-10-19T21:38:28;18.67;;;11.55;;
47545;SDS011;50104;52.002;4.688;2023-10-19T21:43:29;17.80;;;10.13;;
47545;SDS011;50104;52.002;4.688;2023-10-19T21:48:31;14.73;;;10.70;;
47545;SDS011;50104;52.002;4.688;2023-10-19T21:53:32;15.27;;;10.32;;
47545;SDS011;50104;52.002;4.688;2023-10-19T21:58:33;17.02;;;11.48;;
47545;SDS011;50104;52.002;4.688;2023-10-19T22:03:35;17.70;;;11.75;;
47545;SDS011;50104;52.002;4.688;2023-10-19T22:08:37;16.90;;;10.88;;
47545;SDS011;50104;52.002;4.688;2023-10-19T22:13:38;17.30;;;12.40;;
47545;SDS011;50104;52.002;4.688;2023-10-19T22:18:39;17.23;;;11.68;;
47545;SDS011;50104;52.002;4.688;2023-10-19T22:23:40;17.80;;;11.07;;
47545;SDS011;50104;52.002;4.688;2023-10-19T22:28:41;17.77;;;11.95;;
47545;SDS011;50104;52.002;4.688;2023-10-19T22:33:42;16.88;;;11.75;;
47545;SDS011;50104;52.002;4.688;2023-10-19T22:38:42;19.85;;;13.13;;
47545;SDS011;50104;52.002;4.688;2023-10-19T22:43:43;17.02;;;11.68;;
47545;SDS011;50104;52.002;4.688;2023-10-19T22:48:44;20.60;;;12.95;;
47545;SDS011;50104;52.002;4.688;2023-10-19T22:53:45;22.90;;;12.90;;
47545;SDS011;50104;52.002;4.688;2023-10-19T22:58:46;20.65;;;13.48;;
47545;SDS011;50104;52.002;4.688;2023-10-19T23:03:47;17.25;;;14.07;;
47545;SDS011;50104;52.002;4.688;2023-10-19T23:08:48;20.35;;;13.55;;
47545;SDS011;50104;52.002;4.688;2023-10-19T23:13:49;19.50;;;12.90;;
47545;SDS011;50104;52.002;4.688;2023-10-19T23:18:51;21.67;;;14.57;;
47545;SDS011;50104;52.002;4.688;2023-10-19T23:23:55;17.08;;;12.50;;
47545;SDS011;50104;52.002;4.688;2023-10-19T23:28:55;18.95;;;14.00;;
47545;SDS011;50104;52.002;4.688;2023-10-19T23:33:57;17.65;;;13.57;;
47545;SDS011;50104;52.002;4.688;2023-10-19T23:38:59;20.08;;;13.13;;
47545;SDS011;50104;52.002;4.688;2023-10-19T23:44:01;19.48;;;13.52;;
47545;SDS011;50104;52.002;4.688;2023-10-19T23:49:02;18.02;;;13.90;;
47545;SDS011;50104;52.002;4.688;2023-10-19T23:54:04;17.58;;;12.98;;
47545;SDS011;50104;52.002;4.688;2023-10-19T23:59:05;18.27;;;13.57;;
